Terminal Aerodrome Forecast
Issued by NWS

Home | Current Version | Previous Version | Text Only | Print | Product List | Glossary On
Versions: 1 2 3 4 5 6 7 8 9 10 11 12 13 14 15 16 17 18 19 20 21 22 23 24 25 26 27 28
000
FTUS45 KGJT 301140
TAFASE
TAF
KASE 301140Z 3012/0112 VRB04KT P6SM VCSH SCT028 OVC040
      TEMPO 3012/3016 -SHRA BKN025 OVC040
     FM301800 31004KT P6SM VCTS BKN050CB
     FM302000 31006KT P6SM SHRA VCTS SCT040 BKN060CB
     FM010100 21004KT P6SM BKN070
     FM010400 VRB03KT P6SM SCT050=

USA.gov is the U.S. government's official web portal to all federal, state and local government web resources and services.